Terminal Aerodrome Forecast
Issued by NWS Cleveland, OH

Home | Current Version | Previous Version | Text Only | Print | Product List | Glossary Off
Versions: 1 2 3 4 5 6 7 8 9 10 11 12 13 14 15 16 17 18 19 20 21 22 23

000
FTUS41 KCLE 101725
TAFERI
TAF
KERI 101725Z 1018/1118 23019G29KT 6SM -SHSN SCT020 OVC050
      TEMPO 1018/1020 3SM -SN BR BKN020 OVC050
     FM102000 23017G27KT P6SM VCSH OVC020
     FM110100 24015G25KT 3SM -SN BR OVC015
      TEMPO 1101/1103 1SM -SN BR SCT009 OVC015
     FM110300 25015G25KT 1SM -SHSN OVC015
     FM110700 28011KT 4SM -SHSN OVC015
     FM111100 31006KT P6SM VCSH OVC015
     FM111500 27006KT P6SM OVC025
     FM111700 24006KT P6SM OVC030=

USA.gov is the U.S. government's official web portal to all federal, state and local government web resources and services.